createdAt,value
2018-09-23T00:00:46.441Z,74.13
2018-09-23T00:03:14.217Z,76.85
2018-09-23T00:05:42.065Z,75.67
2018-09-23T00:08:09.891Z,74.93
2018-09-23T00:10:37.702Z,74.08
2018-09-23T00:13:05.892Z,72.89
2018-09-23T00:15:33.764Z,75.17
2018-09-23T00:18:01.745Z,73.69
2018-09-23T00:20:29.548Z,73.50
2018-09-23T00:22:57.456Z,76.50
2018-09-23T00:25:25.312Z,73.30
2018-09-23T00:27:53.146Z,74.06
2018-09-23T00:30:20.900Z,74.79
2018-09-23T00:32:48.668Z,75.15
2018-09-23T00:35:16.436Z,74.08
2018-09-23T00:37:44.256Z,72.54
2018-09-23T00:40:12.121Z,73.59
2018-09-23T00:42:39.921Z,77.17
2018-09-23T00:45:07.848Z,72.02
2018-09-23T00:47:35.708Z,73.66
2018-09-23T00:50:03.989Z,73.65
2018-09-23T00:52:31.811Z,72.89
2018-09-23T00:54:59.608Z,72.60
2018-09-23T00:57:27.380Z,72.93
2018-09-23T00:59:55.157Z,73.91
2018-09-23T01:02:22.950Z,75.05
2018-09-23T01:04:50.787Z,73.00
2018-09-23T01:07:18.621Z,73.08
2018-09-23T01:09:46.479Z,73.28
2018-09-23T01:12:14.275Z,74.22
2018-09-23T01:14:42.008Z,73.08
2018-09-23T01:17:09.891Z,75.63
2018-09-23T01:19:37.700Z,75.73
2018-09-23T01:22:05.553Z,75.71
2018-09-23T01:24:33.325Z,76.52
2018-09-23T01:27:01.176Z,77.08
2018-09-23T01:29:32.012Z,77.40
2018-09-23T01:31:59.772Z,77.97
2018-09-23T01:34:27.555Z,78.10
2018-09-23T01:36:55.349Z,78.14
2018-09-23T01:39:23.168Z,77.27
2018-09-23T01:41:51.016Z,76.20
2018-09-23T01:44:18.865Z,76.43
2018-09-23T01:46:46.684Z,77.05
2018-09-23T01:49:14.437Z,76.24
2018-09-23T01:51:42.332Z,77.25
2018-09-23T01:54:10.386Z,76.68
2018-09-23T01:56:38.123Z,76.77
2018-09-23T01:59:05.951Z,75.51
2018-09-23T02:01:33.800Z,74.44
2018-09-23T02:04:01.568Z,73.08
2018-09-23T02:06:29.381Z,78.42
2018-09-23T02:08:57.185Z,78.62
2018-09-23T02:11:25.028Z,78.26
2018-09-23T02:13:52.872Z,78.89
2018-09-23T02:16:20.659Z,77.10
2018-09-23T02:18:48.452Z,76.70
2018-09-23T02:21:16.287Z,77.82
2018-09-23T02:23:44.055Z,78.88
2018-09-23T02:26:11.974Z,78.37
2018-09-23T02:28:39.817Z,78.75
2018-09-23T02:31:07.612Z,78.53
2018-09-23T02:33:35.417Z,78.80
2018-09-23T02:36:03.251Z,77.43
2018-09-23T02:38:31.028Z,77.92
2018-09-23T02:40:58.864Z,78.39
2018-09-23T02:43:26.697Z,78.45
2018-09-23T02:45:54.591Z,78.10
2018-09-23T02:48:22.445Z,78.71
2018-09-23T02:50:50.213Z,78.36
2018-09-23T02:53:17.952Z,77.49
2018-09-23T02:55:45.811Z,78.30
2018-09-23T02:58:13.562Z,79.48
2018-09-23T03:00:41.371Z,79.10
2018-09-23T03:03:09.161Z,78.27
2018-09-23T03:05:36.999Z,79.17
2018-09-23T03:08:04.968Z,79.79
2018-09-23T03:10:32.776Z,76.48
2018-09-23T03:13:00.616Z,76.56
2018-09-23T03:15:28.487Z,78.97
2018-09-23T03:17:56.291Z,80.35
2018-09-23T03:20:24.132Z,78.16
2018-09-23T03:22:51.957Z,77.54
2018-09-23T03:25:19.792Z,77.50
2018-09-23T03:27:47.639Z,78.02
2018-09-23T03:30:15.455Z,79.21
2018-09-23T03:32:43.232Z,80.98
2018-09-23T03:35:11.063Z,79.08
2018-09-23T03:37:38.840Z,80.19
2018-09-23T03:40:06.704Z,77.27
2018-09-23T03:42:34.595Z,77.52
2018-09-23T03:45:02.344Z,81.58
2018-09-23T03:47:30.088Z,80.51
2018-09-23T03:49:57.946Z,80.32
2018-09-23T03:52:25.777Z,80.17
2018-09-23T03:54:53.564Z,78.43
2018-09-23T03:57:21.441Z,81.65
2018-09-23T03:59:49.233Z,78.74
2018-09-23T04:02:17.024Z,79.36
2018-09-23T04:04:44.900Z,77.79
2018-09-23T04:07:12.696Z,78.19
2018-09-23T04:09:40.541Z,79.61
2018-09-23T04:12:08.408Z,81.32
2018-09-23T04:14:36.144Z,80.96
2018-09-23T04:17:04.109Z,79.94
2018-09-23T04:19:31.958Z,79.21
2018-09-23T04:21:59.815Z,78.37
2018-09-23T04:24:27.723Z,78.46
2018-09-23T04:26:55.599Z,78.72
2018-09-23T04:29:23.496Z,78.19
2018-09-23T04:31:51.348Z,77.95
2018-09-23T04:34:19.292Z,77.23
2018-09-23T04:36:47.072Z,77.64
2018-09-23T04:39:14.880Z,80.17
2018-09-23T04:41:42.632Z,78.72
2018-09-23T04:44:10.436Z,79.94
2018-09-23T04:46:38.284Z,79.88
2018-09-23T04:49:06.039Z,80.45
2018-09-23T04:51:33.871Z,81.42
2018-09-23T04:54:01.677Z,81.06
2018-09-23T04:56:29.472Z,81.74
2018-09-23T04:58:57.288Z,81.96
2018-09-23T05:01:25.080Z,82.05
2018-09-23T05:03:52.928Z,81.82
2018-09-23T05:06:20.735Z,82.08
2018-09-23T05:08:48.587Z,82.08
2018-09-23T05:11:16.491Z,82.66
2018-09-23T05:13:44.315Z,82.45
2018-09-23T05:16:12.151Z,80.25
2018-09-23T05:18:39.967Z,80.96
2018-09-23T05:21:07.849Z,80.64
2018-09-23T05:23:35.660Z,81.47
2018-09-23T05:26:03.479Z,79.86
2018-09-23T05:28:31.327Z,79.26
2018-09-23T05:30:59.231Z,80.27
2018-09-23T05:33:27.007Z,79.22
2018-09-23T05:35:54.843Z,80.59
2018-09-23T05:38:22.664Z,79.51
2018-09-23T05:40:50.535Z,80.82
2018-09-23T05:43:18.355Z,80.07
2018-09-23T05:45:46.167Z,80.25
2018-09-23T05:48:13.955Z,80.85
2018-09-23T05:50:41.847Z,82.38
2018-09-23T05:53:09.656Z,79.80
2018-09-23T05:55:37.413Z,81.41
2018-09-23T05:58:05.180Z,79.99
2018-09-23T06:00:38.311Z,80.80
2018-09-23T06:03:06.431Z,80.39
2018-09-23T06:05:34.215Z,80.97
2018-09-23T06:08:02.049Z,82.78
2018-09-23T06:10:29.916Z,82.39
2018-09-23T06:12:57.759Z,81.14
2018-09-23T06:15:25.735Z,80.33
2018-09-23T06:17:53.507Z,81.33
2018-09-23T06:20:21.292Z,79.88
2018-09-23T06:22:49.098Z,82.54
2018-09-23T06:25:16.909Z,81.25
2018-09-23T06:27:44.732Z,81.29
2018-09-23T06:30:12.579Z,81.20
2018-09-23T06:32:40.351Z,82.53
2018-09-23T06:35:08.153Z,81.40
2018-09-23T06:37:35.924Z,80.77
2018-09-23T06:40:03.819Z,81.72
2018-09-23T06:42:31.756Z,82.18
2018-09-23T06:44:59.551Z,81.28
2018-09-23T06:47:27.382Z,82.31
2018-09-23T06:49:55.195Z,80.77
2018-09-23T06:52:23.083Z,79.47
2018-09-23T06:54:50.923Z,81.18
2018-09-23T06:57:18.756Z,81.98
2018-09-23T06:59:46.487Z,79.72
2018-09-23T07:02:14.260Z,81.55
2018-09-23T07:04:42.353Z,80.25
2018-09-23T07:07:11.252Z,80.97
2018-09-23T07:09:39.096Z,80.41
2018-09-23T07:12:06.904Z,82.08
2018-09-23T07:14:34.683Z,80.43
2018-09-23T07:17:02.745Z,80.49
2018-09-23T07:19:30.540Z,81.14
2018-09-23T07:21:58.595Z,80.35
2018-09-23T07:24:26.512Z,80.34
2018-09-23T07:26:54.552Z,79.64
2018-09-23T07:29:22.631Z,79.98
2018-09-23T07:31:50.495Z,78.91
2018-09-23T07:34:18.362Z,78.03
2018-09-23T07:36:46.403Z,79.10
2018-09-23T07:39:14.592Z,80.23
2018-09-23T07:41:42.601Z,79.48
2018-09-23T07:44:10.923Z,81.69
2018-09-23T07:46:38.751Z,79.25
2018-09-23T07:49:06.567Z,80.77
2018-09-23T07:51:34.380Z,79.61
2018-09-23T07:54:02.164Z,80.40
2018-09-23T07:56:30.235Z,78.63
2018-09-23T07:58:57.957Z,78.08
2018-09-23T08:01:25.867Z,80.36
2018-09-23T08:03:53.576Z,81.24
2018-09-23T08:06:21.419Z,83.09
2018-09-23T08:08:49.273Z,82.93
2018-09-23T08:11:17.068Z,81.46
2018-09-23T08:13:45.071Z,82.54
2018-09-23T08:16:12.579Z,83.89
2018-09-23T08:18:40.439Z,83.26
2018-09-23T08:21:08.334Z,81.00
2018-09-23T08:23:36.116Z,81.77
2018-09-23T08:26:03.952Z,84.07
2018-09-23T08:28:31.788Z,84.37
2018-09-23T08:30:59.543Z,84.73
2018-09-23T08:33:27.288Z,85.56
2018-09-23T08:35:55.055Z,85.32
2018-09-23T08:38:22.847Z,83.87
2018-09-23T08:40:50.699Z,83.83
2018-09-23T08:43:18.564Z,83.63
2018-09-23T08:45:46.485Z,84.12
2018-09-23T08:48:14.306Z,85.80
2018-09-23T08:50:42.092Z,84.65
2018-09-23T08:53:09.855Z,85.61
2018-09-23T08:55:37.740Z,85.31
2018-09-23T08:58:05.832Z,86.42
2018-09-23T09:00:33.616Z,86.11
2018-09-23T09:03:01.513Z,86.09
2018-09-23T09:05:29.375Z,86.38
2018-09-23T09:07:57.225Z,87.86
2018-09-23T09:10:25.040Z,85.81
2018-09-23T09:12:52.888Z,86.35
2018-09-23T09:15:20.737Z,85.04
2018-09-23T09:17:48.552Z,86.27
2018-09-23T09:20:16.320Z,86.89
2018-09-23T09:22:44.196Z,86.55
2018-09-23T09:25:12.227Z,86.05
2018-09-23T09:27:40.107Z,84.72
2018-09-23T09:30:07.980Z,85.28
2018-09-23T09:32:35.781Z,86.54
2018-09-23T09:35:03.628Z,86.43
2018-09-23T09:37:31.422Z,85.69
2018-09-23T09:39:59.188Z,86.12
2018-09-23T09:42:27.013Z,85.24
2018-09-23T09:44:54.925Z,84.97
2018-09-23T09:47:22.747Z,83.23
2018-09-23T09:49:50.519Z,86.67
2018-09-23T09:52:18.360Z,84.88
2018-09-23T09:54:46.256Z,86.26
2018-09-23T09:57:14.037Z,84.28
2018-09-23T09:59:41.908Z,84.70
2018-09-23T10:02:09.736Z,87.17
2018-09-23T10:04:37.563Z,87.57
2018-09-23T10:07:05.564Z,87.10
2018-09-23T10:09:33.435Z,85.07
2018-09-23T10:12:01.288Z,84.38
2018-09-23T10:14:29.129Z,87.28
2018-09-23T10:16:56.885Z,85.78
2018-09-23T10:19:24.683Z,84.13
2018-09-23T10:21:52.533Z,85.02
2018-09-23T10:24:20.407Z,83.73
2018-09-23T10:26:48.184Z,85.00
2018-09-23T10:29:15.948Z,84.92
2018-09-23T10:31:43.850Z,83.64
2018-09-23T10:34:11.555Z,85.20
2018-09-23T10:36:39.336Z,85.47
2018-09-23T10:39:09.031Z,83.15
2018-09-23T10:41:36.903Z,83.89
2018-09-23T10:44:05.187Z,80.51
2018-09-23T10:46:33.222Z,85.33
2018-09-23T10:49:01.019Z,83.21
2018-09-23T10:51:28.820Z,83.40
2018-09-23T10:53:56.708Z,81.94
2018-09-23T10:56:24.560Z,81.86
2018-09-23T10:58:52.361Z,81.48
2018-09-23T11:01:20.216Z,79.81
2018-09-23T11:03:48.514Z,80.02
2018-09-23T11:06:16.616Z,83.04
2018-09-23T11:08:46.522Z,81.97
2018-09-23T11:11:14.656Z,80.51
2018-09-23T11:13:44.518Z,82.15
2018-09-23T11:16:13.743Z,80.66
2018-09-23T11:18:41.629Z,80.06
2018-09-23T11:21:11.032Z,80.04
2018-09-23T11:23:42.572Z,81.12
2018-09-23T11:26:11.443Z,80.61
2018-09-23T11:28:40.533Z,80.56
2018-09-23T11:31:08.725Z,83.24
2018-09-23T11:33:37.177Z,81.92
2018-09-23T11:36:06.492Z,80.77
2018-09-23T11:38:34.988Z,82.53
2018-09-23T11:41:03.540Z,84.55
2018-09-23T11:43:32.287Z,85.55
2018-09-23T11:46:00.150Z,84.97
2018-09-23T11:48:28.883Z,82.57
2018-09-23T11:50:57.571Z,82.50
2018-09-23T11:53:25.349Z,82.69
2018-09-23T11:55:54.033Z,82.93
2018-09-23T11:58:21.957Z,82.75
2018-09-23T12:00:49.867Z,82.83
2018-09-23T12:03:17.691Z,81.60
2018-09-23T12:05:45.560Z,82.42
2018-09-23T12:08:13.440Z,80.80
2018-09-23T12:10:41.226Z,80.10
2018-09-23T12:13:09.011Z,78.94
2018-09-23T12:15:36.873Z,78.69
2018-09-23T12:18:04.721Z,78.11
2018-09-23T12:20:32.512Z,77.20
2018-09-23T12:23:00.724Z,77.08
2018-09-23T12:25:28.684Z,77.02
2018-09-23T12:27:56.388Z,76.16
2018-09-23T12:30:24.680Z,76.45
2018-09-23T12:32:53.090Z,77.30
2018-09-23T12:35:21.916Z,76.41
2018-09-23T12:37:50.175Z,75.72
2018-09-23T12:40:18.042Z,76.23
2018-09-23T12:42:46.532Z,76.39
2018-09-23T12:45:14.346Z,75.78
2018-09-23T12:47:42.200Z,75.26
2018-09-23T12:50:10.872Z,75.18
2018-09-23T12:52:39.510Z,74.68
2018-09-23T12:55:09.470Z,74.52
2018-09-23T12:57:37.738Z,73.34
2018-09-23T13:00:06.091Z,73.04
2018-09-23T13:02:34.408Z,73.77
2018-09-23T13:05:02.505Z,73.49
2018-09-23T13:07:30.971Z,72.33
2018-09-23T13:09:58.762Z,71.96
2018-09-23T13:12:26.521Z,72.41
2018-09-23T13:14:54.785Z,72.34
2018-09-23T13:17:22.889Z,71.19
2018-09-23T13:19:53.169Z,71.56
2018-09-23T13:22:20.988Z,71.49
2018-09-23T13:24:48.927Z,70.80
2018-09-23T13:27:16.724Z,69.76
2018-09-23T13:29:45.642Z,70.13
2018-09-23T13:32:13.505Z,69.42
2018-09-23T13:34:41.347Z,69.18
2018-09-23T13:37:09.173Z,68.46
2018-09-23T13:39:37.048Z,67.97
2018-09-23T13:42:04.785Z,67.38
2018-09-23T13:44:32.620Z,67.50
2018-09-23T13:47:00.684Z,67.94
2018-09-23T13:49:28.746Z,67.60
2018-09-23T13:51:56.683Z,67.92
2018-09-23T13:54:24.585Z,67.90
2018-09-23T13:56:52.456Z,67.53
2018-09-23T13:59:20.400Z,67.90
2018-09-23T14:01:48.231Z,67.26
2018-09-23T14:04:16.048Z,67.05
2018-09-23T14:06:50.085Z,66.90
2018-09-23T14:09:18.129Z,66.97
2018-09-23T14:11:45.951Z,67.06
2018-09-23T14:14:13.856Z,66.68
2018-09-23T14:16:41.748Z,67.53
2018-09-23T14:19:09.532Z,68.65
2018-09-23T14:21:39.796Z,69.89
2018-09-23T14:24:07.566Z,71.27
2018-09-23T14:26:35.936Z,72.68
2018-09-23T14:29:03.842Z,74.45
2018-09-23T14:31:33.624Z,76.37
2018-09-23T14:34:01.497Z,76.54
2018-09-23T14:36:29.444Z,79.68
2018-09-23T14:38:57.806Z,78.41
2018-09-23T14:41:25.842Z,78.17
2018-09-23T14:43:53.636Z,79.91
2018-09-23T14:46:21.497Z,79.67
2018-09-23T14:48:49.307Z,79.88
2018-09-23T14:51:17.043Z,78.65
2018-09-23T14:53:44.883Z,79.47
2018-09-23T14:56:12.684Z,80.81
2018-09-23T14:58:41.170Z,78.61
2018-09-23T15:01:18.376Z,78.34
2018-09-23T15:03:47.276Z,78.95
2018-09-23T15:06:16.675Z,80.29
2018-09-23T15:08:44.444Z,80.25
2018-09-23T15:11:12.296Z,80.92
2018-09-23T15:13:40.118Z,80.19
2018-09-23T15:16:07.900Z,80.66
2018-09-23T15:18:35.613Z,81.87
2018-09-23T15:21:03.557Z,80.91
2018-09-23T15:23:32.001Z,79.75
2018-09-23T15:25:59.884Z,81.41
2018-09-23T15:28:27.795Z,81.21
2018-09-23T15:30:55.652Z,80.21
2018-09-23T15:33:23.423Z,81.31
2018-09-23T15:35:51.280Z,81.43
2018-09-23T15:38:19.116Z,81.22
2018-09-23T15:40:46.888Z,81.77
2018-09-23T15:43:14.776Z,81.80
2018-09-23T15:45:42.760Z,80.58
2018-09-23T15:48:10.599Z,80.68
2018-09-23T15:50:38.463Z,79.80
2018-09-23T15:53:06.579Z,82.15
2018-09-23T15:55:34.551Z,82.03
2018-09-23T15:58:02.497Z,82.35
2018-09-23T16:00:30.296Z,82.29
2018-09-23T16:02:58.076Z,82.10
2018-09-23T16:05:25.925Z,82.17
2018-09-23T16:07:54.490Z,81.94
2018-09-23T16:10:22.490Z,82.73
2018-09-23T16:12:50.270Z,81.96
2018-09-23T16:15:18.346Z,82.41
2018-09-23T16:17:46.243Z,82.13
2018-09-23T16:20:14.120Z,81.85
2018-09-23T16:22:41.890Z,81.68
2018-09-23T16:25:09.860Z,82.07
2018-09-23T16:27:37.716Z,81.17
2018-09-23T16:30:05.617Z,81.47
2018-09-23T16:32:33.400Z,80.96
2018-09-23T16:35:01.255Z,80.79
2018-09-23T16:37:29.202Z,81.23
2018-09-23T16:39:57.016Z,81.59
2018-09-23T16:42:24.772Z,81.11
2018-09-23T16:44:52.539Z,81.67
2018-09-23T16:47:20.507Z,81.16
2018-09-23T16:49:48.276Z,80.98
2018-09-23T16:52:16.028Z,81.38
2018-09-23T16:54:43.947Z,81.82
2018-09-23T16:57:12.181Z,81.77
2018-09-23T16:59:39.941Z,81.75
2018-09-23T17:02:07.747Z,82.21
2018-09-23T17:04:35.606Z,82.26
2018-09-23T17:07:03.376Z,82.87
2018-09-23T17:09:31.235Z,82.49
2018-09-23T17:11:59.160Z,83.21
2018-09-23T17:14:26.927Z,83.39
2018-09-23T17:16:54.722Z,84.19
2018-09-23T17:19:23.477Z,84.14
2018-09-23T17:21:51.441Z,84.19
2018-09-23T17:24:19.212Z,83.27
2018-09-23T17:26:47.004Z,84.37
2018-09-23T17:29:14.828Z,84.63
2018-09-23T17:31:42.603Z,84.79
2018-09-23T17:34:10.492Z,84.49
2018-09-23T17:36:38.242Z,84.83
2018-09-23T17:39:08.966Z,84.67
2018-09-23T17:41:37.539Z,84.21
2018-09-23T17:44:05.597Z,84.17
2018-09-23T17:46:33.536Z,84.26
2018-09-23T17:49:01.366Z,84.64
2018-09-23T17:51:29.480Z,84.11
2018-09-23T17:53:57.376Z,84.19
2018-09-23T17:56:25.214Z,84.45
2018-09-23T17:58:53.031Z,84.17
2018-09-23T18:01:20.872Z,84.42
2018-09-23T18:03:48.677Z,83.67
2018-09-23T18:06:16.498Z,84.16
2018-09-23T18:08:44.304Z,83.57
2018-09-23T18:11:12.148Z,83.28
2018-09-23T18:13:39.892Z,83.93
2018-09-23T18:16:07.695Z,83.25
2018-09-23T18:18:35.544Z,83.46
2018-09-23T18:21:03.289Z,84.47
2018-09-23T18:23:31.097Z,83.97
2018-09-23T18:25:58.872Z,83.45
2018-09-23T18:28:26.724Z,83.79
2018-09-23T18:30:54.726Z,83.86
2018-09-23T18:33:22.479Z,83.77
2018-09-23T18:35:50.340Z,83.77
2018-09-23T18:38:18.197Z,83.65
2018-09-23T18:40:46.127Z,83.85
2018-09-23T18:43:13.911Z,83.18
2018-09-23T18:45:41.676Z,83.48
2018-09-23T18:48:09.630Z,83.53
2018-09-23T18:50:37.496Z,83.05
2018-09-23T18:53:11.075Z,83.60
2018-09-23T18:55:40.390Z,83.75
2018-09-23T18:58:08.404Z,83.51
2018-09-23T19:00:36.288Z,83.17
2018-09-23T19:03:04.197Z,83.26
2018-09-23T19:05:32.352Z,82.89
2018-09-23T19:08:00.536Z,82.97
2018-09-23T19:10:29.100Z,83.17
2018-09-23T19:13:02.755Z,83.15
2018-09-23T19:15:31.256Z,83.35
2018-09-23T19:17:59.665Z,83.02
2018-09-23T19:20:27.741Z,82.81
2018-09-23T19:23:14.949Z,82.66
2018-09-23T19:25:42.759Z,83.46
2018-09-23T19:28:10.584Z,83.50
2018-09-23T19:30:39.072Z,82.70
2018-09-23T19:33:07.280Z,82.95
2018-09-23T19:35:35.098Z,83.00
2018-09-23T19:38:03.030Z,82.42
2018-09-23T19:40:31.758Z,82.22
2018-09-23T19:42:59.649Z,82.86
2018-09-23T19:45:27.648Z,82.44
2018-09-23T19:47:55.419Z,82.56
2018-09-23T19:50:24.325Z,82.48
2018-09-23T19:52:53.720Z,82.71
2018-09-23T19:55:21.567Z,82.94
2018-09-23T19:57:49.643Z,82.28
2018-09-23T20:00:17.484Z,82.60
2018-09-23T20:02:45.287Z,82.72
2018-09-23T20:05:13.107Z,82.07
2018-09-23T20:07:41.554Z,82.11
2018-09-23T20:10:10.537Z,82.29
2018-09-23T20:12:38.372Z,82.33
2018-09-23T20:15:13.346Z,82.25
2018-09-23T20:17:43.036Z,82.56
2018-09-23T20:20:12.118Z,82.39
2018-09-23T20:22:41.579Z,82.49
2018-09-23T20:25:09.480Z,82.32
2018-09-23T20:27:37.277Z,82.49
2018-09-23T20:30:06.108Z,82.44
2018-09-23T20:32:33.907Z,82.94
2018-09-23T20:35:02.031Z,82.75
2018-09-23T20:37:30.016Z,82.80
2018-09-23T20:39:57.812Z,82.66
2018-09-23T20:42:25.623Z,82.88
2018-09-23T20:44:53.914Z,82.57
2018-09-23T20:47:21.608Z,82.64
2018-09-23T20:49:49.504Z,82.50
2018-09-23T20:52:17.272Z,82.39
2018-09-23T20:54:45.069Z,82.29
2018-09-23T20:57:12.863Z,82.29
2018-09-23T20:59:40.722Z,82.14
2018-09-23T21:02:08.598Z,81.93
2018-09-23T21:04:36.502Z,82.40
2018-09-23T21:07:04.327Z,81.95
2018-09-23T21:09:32.168Z,82.35
2018-09-23T21:11:59.964Z,82.18
2018-09-23T21:14:27.777Z,81.95
2018-09-23T21:16:55.608Z,81.99
2018-09-23T21:19:23.716Z,81.80
2018-09-23T21:21:51.622Z,81.63
2018-09-23T21:24:19.375Z,82.03
2018-09-23T21:26:47.231Z,81.82
2018-09-23T21:29:15.024Z,82.19
2018-09-23T21:31:42.751Z,82.04
2018-09-23T21:34:10.483Z,81.84
2018-09-23T21:36:38.380Z,82.14
2018-09-23T21:39:07.883Z,81.94
2018-09-23T21:41:36.055Z,81.75
2018-09-23T21:44:04.133Z,81.47
2018-09-23T21:46:32.048Z,81.12
2018-09-23T21:48:59.860Z,81.46
2018-09-23T21:51:27.665Z,81.72
2018-09-23T21:53:55.472Z,81.25
2018-09-23T21:56:23.284Z,81.63
2018-09-23T21:58:51.162Z,81.54
2018-09-23T22:01:19.000Z,81.48
2018-09-23T22:03:46.813Z,81.69
2018-09-23T22:06:14.620Z,81.62
2018-09-23T22:08:42.388Z,81.55
2018-09-23T22:11:10.175Z,81.71
2018-09-23T22:13:37.931Z,81.80
2018-09-23T22:16:05.968Z,81.99
2018-09-23T22:18:33.752Z,81.78
2018-09-23T22:21:01.609Z,81.69
2018-09-23T22:23:29.395Z,81.60
2018-09-23T22:25:57.168Z,81.80
2018-09-23T22:28:24.999Z,81.50
2018-09-23T22:30:52.808Z,81.78
2018-09-23T22:33:20.627Z,82.10
2018-09-23T22:35:48.395Z,81.73
2018-09-23T22:38:16.244Z,81.21
2018-09-23T22:40:44.052Z,81.88
2018-09-23T22:43:11.764Z,81.87
2018-09-23T22:45:39.589Z,81.00
2018-09-23T22:48:07.456Z,80.91
2018-09-23T22:50:35.269Z,81.14
2018-09-23T22:53:03.103Z,81.00
2018-09-23T22:55:30.935Z,80.88
2018-09-23T22:57:58.747Z,81.03
2018-09-23T23:00:26.601Z,80.71
2018-09-23T23:02:54.457Z,80.79
2018-09-23T23:05:22.281Z,80.49
2018-09-23T23:07:50.089Z,80.90
2018-09-23T23:10:18.772Z,80.73
2018-09-23T23:12:46.677Z,80.92
2018-09-23T23:15:22.264Z,81.08
2018-09-23T23:17:50.495Z,80.73
2018-09-23T23:20:18.296Z,80.72
2018-09-23T23:22:46.089Z,80.65
2018-09-23T23:25:17.099Z,80.75
2018-09-23T23:27:45.074Z,80.51
2018-09-23T23:30:12.923Z,80.43
2018-09-23T23:32:41.366Z,80.36
2018-09-23T23:35:09.227Z,80.48
2018-09-23T23:37:37.028Z,80.56
2018-09-23T23:40:06.603Z,79.88
2018-09-23T23:42:35.043Z,79.83
2018-09-23T23:45:02.911Z,80.25
2018-09-23T23:47:30.688Z,79.67
2018-09-23T23:49:58.512Z,80.44
2018-09-23T23:52:26.320Z,79.71
2018-09-23T23:54:54.077Z,79.80
2018-09-23T23:57:21.868Z,80.03
2018-09-23T23:59:49.758Z,79.98
